createdAt,value
2016-09-19T16:46:26.969Z,1020.15
2016-09-19T16:46:52.526Z,1020.12
2016-09-19T16:48:00.917Z,1020.13
2016-09-19T16:48:59.005Z,1020.16
2016-09-19T16:49:24.639Z,1020.21
2016-09-19T16:49:50.299Z,1020.16
2016-09-19T16:50:15.912Z,1020.12
2016-09-19T16:50:41.563Z,1020.16
2016-09-19T16:51:07.324Z,1020.19
2016-09-19T16:51:32.991Z,1020.19
2016-09-19T16:51:58.576Z,1020.18
2016-09-19T16:52:24.217Z,1020.22
2016-09-19T16:52:50.725Z,1020.18
2016-09-19T16:53:16.409Z,1020.2
2016-09-19T16:53:42.030Z,1020.21
2016-09-19T16:54:07.626Z,1020.18
2016-09-19T16:54:33.285Z,1020.17
2016-09-19T16:54:59.546Z,1020.19
2016-09-19T16:55:25.128Z,1020.18
2016-09-19T16:55:50.687Z,1020.15
2016-09-19T16:56:16.332Z,1020.16
2016-09-19T16:56:41.992Z,1020.14
2016-09-19T16:57:07.773Z,1020.18
2016-09-19T16:57:33.452Z,1020.18
2016-09-19T16:57:59.146Z,1020.17
2016-09-19T16:58:24.723Z,1020.2
2016-09-19T16:58:50.385Z,1020.16
2016-09-19T16:59:16.066Z,1020.18
2016-09-19T16:59:41.707Z,1020.16
2016-09-19T17:00:07.406Z,1020.2
2016-09-19T17:00:33.071Z,1020.2
2016-09-19T17:00:58.838Z,1020.21
2016-09-19T17:01:24.353Z,1020.22
2016-09-19T17:01:50.547Z,1020.17
2016-09-19T17:02:16.246Z,1020.19
2016-09-19T17:02:41.818Z,1020.23
2016-09-19T17:03:07.542Z,1020.22
2016-09-19T17:03:33.210Z,1020.25
2016-09-19T17:03:58.806Z,1020.22
2016-09-19T17:04:56.884Z,1020.24
2016-09-19T17:05:54.951Z,1020.24
2016-09-19T17:06:20.663Z,1020.22
2016-09-19T17:06:46.245Z,1020.2
2016-09-19T17:07:11.964Z,1020.23
2016-09-19T17:07:37.978Z,1020.23
2016-09-19T17:08:03.547Z,1020.21
2016-09-19T17:08:29.219Z,1020.23
2016-09-19T17:08:54.839Z,1020.24
2016-09-19T17:09:20.484Z,1020.23
2016-09-19T17:09:46.062Z,1020.2
2016-09-19T17:10:54.456Z,1020.2
2016-09-19T17:11:20.065Z,1020.19
2016-09-19T17:11:45.743Z,1020.19
2016-09-19T17:12:11.340Z,1020.21
2016-09-19T17:12:36.943Z,1020.21
2016-09-19T17:13:02.540Z,1020.22
2016-09-19T17:13:28.378Z,1020.22
2016-09-19T17:13:54.334Z,1020.19
2016-09-19T17:14:19.947Z,1020.21
2016-09-19T17:14:45.599Z,1020.22
2016-09-19T17:15:11.158Z,1020.21
2016-09-19T17:15:36.731Z,1020.22
2016-09-19T17:16:02.444Z,1020.26
2016-09-19T17:16:28.430Z,1020.24
2016-09-19T17:16:53.973Z,1020.24
2016-09-19T17:17:19.622Z,1020.25
2016-09-19T17:17:45.202Z,1020.25
2016-09-19T17:18:10.921Z,1020.24
2016-09-19T17:18:36.579Z,1020.26
2016-09-19T17:19:02.151Z,1020.26
2016-09-19T17:19:28.159Z,1020.3
2016-09-19T17:19:54.365Z,1020.22
2016-09-19T17:20:19.997Z,1020.32
2016-09-19T17:20:45.666Z,1020.24
2016-09-19T17:21:11.235Z,1020.26
2016-09-19T17:21:36.916Z,1020.24
2016-09-19T17:22:02.503Z,1020.24
2016-09-19T17:22:28.278Z,1020.23
2016-09-19T17:22:53.943Z,1020.22
2016-09-19T17:23:19.464Z,1020.26
2016-09-19T17:23:45.033Z,1020.23
2016-09-19T17:24:10.689Z,1020.21
2016-09-19T17:24:36.252Z,1020.27
2016-09-19T17:25:01.837Z,1020.25
2016-09-19T17:25:27.411Z,1020.23
2016-09-19T17:25:53.381Z,1020.2
2016-09-19T17:26:19.132Z,1020.27
2016-09-19T17:26:44.747Z,1020.26
2016-09-19T17:27:10.346Z,1020.25
2016-09-19T17:27:35.967Z,1020.26
2016-09-19T17:28:01.630Z,1020.27
2016-09-19T17:28:27.333Z,1020.27
2016-09-19T17:28:53.042Z,1020.27
2016-09-19T17:29:19.806Z,1020.24
2016-09-19T17:29:45.356Z,1020.24
2016-09-19T17:30:54.096Z,1020.23
2016-09-19T17:31:19.743Z,1020.21
2016-09-19T17:31:45.324Z,1020.22
2016-09-19T17:32:10.977Z,1020.24
2016-09-19T17:32:36.547Z,1020.25
2016-09-19T17:33:02.269Z,1020.28
2016-09-19T17:33:27.974Z,1020.24
2016-09-19T17:33:53.550Z,1020.26
2016-09-19T17:34:19.179Z,1020.27
2016-09-19T17:34:44.768Z,1020.29
2016-09-19T17:35:53.087Z,1020.25
2016-09-19T17:36:18.649Z,1020.3
2016-09-19T17:36:44.273Z,1020.25
2016-09-19T17:37:09.811Z,1020.24
2016-09-19T17:37:35.417Z,1020.24
2016-09-19T17:38:01.083Z,1020.26
2016-09-19T17:38:26.651Z,1020.27
2016-09-19T17:38:53.172Z,1020.26
2016-09-19T17:39:18.983Z,1020.29
2016-09-19T17:39:44.692Z,1020.29
2016-09-19T17:40:10.273Z,1020.3
2016-09-19T17:40:35.882Z,1020.32
2016-09-19T17:41:01.439Z,1020.31
2016-09-19T17:41:27.172Z,1020.31
2016-09-19T17:41:52.729Z,1020.31
2016-09-19T17:42:18.337Z,1020.29
2016-09-19T17:42:44.041Z,1020.29
2016-09-19T17:43:09.624Z,1020.3
2016-09-19T17:43:35.316Z,1020.35
2016-09-19T17:44:00.952Z,1020.3
2016-09-19T17:44:26.543Z,1020.32
2016-09-19T17:44:52.209Z,1020.32
2016-09-19T17:45:17.750Z,1020.34
2016-09-19T17:45:43.401Z,1020.33
2016-09-19T17:46:08.984Z,1020.39
2016-09-19T17:46:34.563Z,1020.35
2016-09-19T17:47:05.178Z,1020.33
2016-09-19T17:47:30.892Z,1020.35
2016-09-19T17:47:56.472Z,1020.39
2016-09-19T17:48:22.149Z,1020.37
2016-09-19T17:48:47.717Z,1020.37
2016-09-19T17:49:13.349Z,1020.35
2016-09-19T17:49:38.979Z,1020.37
2016-09-19T17:50:04.598Z,1020.39
2016-09-19T17:50:30.247Z,1020.36
2016-09-19T17:50:56.065Z,1020.38
2016-09-19T17:51:21.643Z,1020.39
2016-09-19T17:51:47.245Z,1020.36
2016-09-19T17:52:12.819Z,1020.4
2016-09-19T17:52:38.537Z,1020.39
2016-09-19T17:53:04.117Z,1020.36
2016-09-19T17:53:29.684Z,1020.39
2016-09-19T17:53:55.324Z,1020.4
2016-09-19T17:54:20.914Z,1020.4
2016-09-19T17:54:46.465Z,1020.39
2016-09-19T17:55:12.069Z,1020.4
2016-09-19T17:55:37.674Z,1020.4
2016-09-19T17:56:03.410Z,1020.41
2016-09-19T17:56:28.982Z,1020.42
2016-09-19T17:56:54.579Z,1020.39
2016-09-19T17:57:20.220Z,1020.38
2016-09-19T17:57:45.783Z,1020.41
2016-09-19T17:58:11.371Z,1020.38
2016-09-19T17:58:36.953Z,1020.43
2016-09-19T17:59:02.621Z,1020.42
2016-09-19T17:59:28.262Z,1020.44
2016-09-19T17:59:53.861Z,1020.41
2016-09-19T18:00:19.527Z,1020.41
2016-09-19T18:00:45.234Z,1020.39
2016-09-19T18:01:10.828Z,1020.46
2016-09-19T18:02:29.580Z,1020.41
2016-09-19T18:02:55.141Z,1020.44
2016-09-19T18:03:53.322Z,1020.39
2016-09-19T18:04:18.918Z,1020.43
2016-09-19T18:04:44.525Z,1020.41
2016-09-19T18:05:10.967Z,1020.4
2016-09-19T18:05:36.598Z,1020.42
2016-09-19T18:06:02.147Z,1020.41
2016-09-19T18:06:27.821Z,1020.41
2016-09-19T18:06:53.415Z,1020.41
2016-09-19T18:07:19.154Z,1020.47
2016-09-19T18:07:44.814Z,1020.41
2016-09-19T18:08:10.388Z,1020.42
2016-09-19T18:08:36.587Z,1020.41
2016-09-19T18:09:02.170Z,1020.39
2016-09-19T18:09:27.874Z,1020.42
2016-09-19T18:09:53.425Z,1020.39
2016-09-19T18:10:19.185Z,1020.43
2016-09-19T18:10:44.789Z,1020.39
2016-09-19T18:11:10.466Z,1020.38
2016-09-19T18:11:36.240Z,1020.37
2016-09-19T18:12:01.933Z,1020.42
2016-09-19T18:12:27.568Z,1020.37
2016-09-19T18:12:53.181Z,1020.36
2016-09-19T18:13:18.799Z,1020.43
2016-09-19T18:13:44.445Z,1020.41
2016-09-19T18:14:10.120Z,1020.42
2016-09-19T18:14:35.777Z,1020.4
2016-09-19T18:15:01.442Z,1020.39
2016-09-19T18:15:26.965Z,1020.37
2016-09-19T18:15:52.637Z,1020.42
2016-09-19T18:16:18.250Z,1020.43
2016-09-19T18:16:43.868Z,1020.44
2016-09-19T18:17:09.606Z,1020.43
2016-09-19T18:17:35.175Z,1020.41
2016-09-19T18:18:00.846Z,1020.4
2016-09-19T18:18:26.554Z,1020.42
2016-09-19T18:18:52.128Z,1020.4
2016-09-19T18:19:17.829Z,1020.43
2016-09-19T18:19:43.445Z,1020.46
2016-09-19T18:20:09.094Z,1020.43
2016-09-19T18:20:34.717Z,1020.45
2016-09-19T18:21:00.303Z,1020.46
2016-09-19T18:21:58.415Z,1020.51
2016-09-19T18:23:11.997Z,1020.48
2016-09-19T18:23:37.668Z,1020.49
2016-09-19T18:24:56.210Z,1020.51
2016-09-19T18:25:21.834Z,1020.52
2016-09-19T18:25:47.431Z,1020.52
2016-09-19T18:26:13.072Z,1020.52
2016-09-19T18:26:38.723Z,1020.51
2016-09-19T18:27:04.299Z,1020.54
2016-09-19T18:27:29.889Z,1020.53
2016-09-19T18:27:55.462Z,1020.53
2016-09-19T18:28:21.027Z,1020.54
2016-09-19T18:28:46.597Z,1020.52
2016-09-19T18:29:12.261Z,1020.56
2016-09-19T18:29:37.859Z,1020.56
2016-09-19T18:30:03.461Z,1020.54
2016-09-19T18:30:29.019Z,1020.53
2016-09-19T18:30:54.614Z,1020.53
2016-09-19T18:31:20.193Z,1020.54
2016-09-19T18:31:47.159Z,1020.54
2016-09-19T18:32:17.175Z,1020.55
2016-09-19T18:32:38.077Z,1020.57
2016-09-19T18:33:06.178Z,1020.59
2016-09-19T18:34:59.028Z,1020.59
2016-09-19T18:35:24.618Z,1020.58
2016-09-19T18:35:50.176Z,1020.59
2016-09-19T18:37:03.574Z,1020.58
2016-09-19T18:37:29.151Z,1020.6
2016-09-19T18:37:55.468Z,1020.61
2016-09-19T18:38:21.031Z,1020.61
2016-09-19T18:38:46.630Z,1020.6
2016-09-19T18:39:12.350Z,1020.6
2016-09-19T18:39:37.949Z,1020.61
2016-09-19T18:40:41.666Z,1020.6
2016-09-19T18:41:11.525Z,1020.62
2016-09-19T18:41:36.679Z,1020.6
2016-09-19T18:42:02.262Z,1020.62
2016-09-19T18:42:28.060Z,1020.61
2016-09-19T18:42:53.436Z,1020.63
2016-09-19T18:43:19.027Z,1020.58
2016-09-19T18:43:44.611Z,1020.6
2016-09-19T18:44:10.225Z,1020.61
2016-09-19T18:44:35.796Z,1020.61
2016-09-19T18:45:01.426Z,1020.57
2016-09-19T18:45:26.984Z,1020.6
2016-09-19T18:45:52.612Z,1020.61
2016-09-19T18:46:18.224Z,1020.63
2016-09-19T18:46:43.831Z,1020.59
2016-09-19T18:47:09.424Z,1020.6
2016-09-19T18:48:17.879Z,1020.63
2016-09-19T18:48:43.442Z,1020.66
2016-09-19T18:49:09.030Z,1020.61
2016-09-19T18:49:34.973Z,1020.63
2016-09-19T18:50:00.541Z,1020.62
2016-09-19T18:50:26.115Z,1020.6
2016-09-19T18:50:51.710Z,1020.63
2016-09-19T18:51:17.332Z,1020.63
2016-09-19T18:51:42.869Z,1020.67
2016-09-19T18:52:08.467Z,1020.65
2016-09-19T18:52:34.074Z,1020.65
2016-09-19T18:52:59.666Z,1020.66
2016-09-19T18:53:25.382Z,1020.66
2016-09-19T18:53:50.980Z,1020.64
2016-09-19T18:54:16.553Z,1020.67
2016-09-19T18:54:42.260Z,1020.64
2016-09-19T18:55:07.841Z,1020.61
2016-09-19T18:55:33.442Z,1020.65
2016-09-19T18:55:59.137Z,1020.66
2016-09-19T18:57:02.350Z,1020.69
2016-09-19T18:57:27.937Z,1020.67
2016-09-19T18:57:53.546Z,1020.61
2016-09-19T18:58:19.161Z,1020.68
2016-09-19T18:58:44.844Z,1020.66
2016-09-19T18:59:10.613Z,1020.66
2016-09-19T18:59:36.192Z,1020.65
2016-09-19T19:00:01.770Z,1020.68
2016-09-19T19:00:27.371Z,1020.69
2016-09-19T19:00:52.933Z,1020.69
2016-09-19T19:01:18.489Z,1020.7
2016-09-19T19:01:44.109Z,1020.69
2016-09-19T19:02:09.711Z,1020.67
2016-09-19T19:02:35.598Z,1020.68
2016-09-19T19:03:01.213Z,1020.67
2016-09-19T19:03:26.789Z,1020.69
2016-09-19T19:03:52.453Z,1020.7
2016-09-19T19:04:18.046Z,1020.68
2016-09-19T19:04:43.655Z,1020.72
2016-09-19T19:05:09.242Z,1020.71
2016-09-19T19:05:35.297Z,1020.68
2016-09-19T19:06:00.895Z,1020.7
2016-09-19T19:06:26.540Z,1020.76
2016-09-19T19:06:52.135Z,1020.71
2016-09-19T19:07:17.747Z,1020.7
2016-09-19T19:07:43.396Z,1020.7
2016-09-19T19:08:09.105Z,1020.7
2016-09-19T19:08:34.853Z,1020.7
2016-09-19T19:09:00.458Z,1020.68
2016-09-19T19:09:26.083Z,1020.68
2016-09-19T19:09:51.707Z,1020.71
2016-09-19T19:10:17.301Z,1020.69
2016-09-19T19:10:42.939Z,1020.69
2016-09-19T19:11:08.493Z,1020.72
2016-09-19T19:11:34.069Z,1020.68
2016-09-19T19:11:59.643Z,1020.65
2016-09-19T19:12:25.341Z,1020.68
2016-09-19T19:12:50.960Z,1020.66
2016-09-19T19:13:16.618Z,1020.72
2016-09-19T19:13:43.113Z,1020.7
2016-09-19T19:14:08.759Z,1020.7
2016-09-19T19:14:34.321Z,1020.68
2016-09-19T19:14:59.946Z,1020.68
2016-09-19T19:15:25.960Z,1020.66
2016-09-19T19:15:51.828Z,1020.7
2016-09-19T19:16:17.412Z,1020.7
2016-09-19T19:16:43.050Z,1020.69
2016-09-19T19:17:08.616Z,1020.68
2016-09-19T19:17:34.205Z,1020.65
2016-09-19T19:18:00.007Z,1020.64
2016-09-19T19:18:26.155Z,1020.67
2016-09-19T19:18:51.772Z,1020.67
2016-09-19T19:19:17.371Z,1020.71
2016-09-19T19:19:42.992Z,1020.71
2016-09-19T19:20:08.582Z,1020.68
2016-09-19T19:20:34.200Z,1020.68
2016-09-19T19:21:00.016Z,1020.71
2016-09-19T19:22:03.035Z,1020.69
2016-09-19T19:22:28.651Z,1020.66
2016-09-19T19:22:54.213Z,1020.66
2016-09-19T19:23:19.813Z,1020.65
2016-09-19T19:23:45.402Z,1020.66
2016-09-19T19:24:10.972Z,1020.63
2016-09-19T19:24:36.569Z,1020.65
2016-09-19T19:25:02.139Z,1020.66
2016-09-19T19:26:00.268Z,1020.65
2016-09-19T19:26:26.009Z,1020.63
2016-09-19T19:26:51.653Z,1020.63
2016-09-19T19:27:17.326Z,1020.67
2016-09-19T19:27:42.888Z,1020.62
2016-09-19T19:28:08.429Z,1020.64
2016-09-19T19:28:33.961Z,1020.65
2016-09-19T19:28:59.601Z,1020.64
2016-09-19T19:29:25.177Z,1020.66
2016-09-19T19:29:50.933Z,1020.69
2016-09-19T19:30:16.538Z,1020.68
2016-09-19T19:30:42.132Z,1020.66
2016-09-19T19:31:07.725Z,1020.72
2016-09-19T19:31:33.378Z,1020.63
2016-09-19T19:31:58.990Z,1020.66
2016-09-19T19:32:24.545Z,1020.68
2016-09-19T19:32:50.147Z,1020.66
2016-09-19T19:33:15.893Z,1020.65
2016-09-19T19:33:41.445Z,1020.69
2016-09-19T19:34:07.032Z,1020.64
2016-09-19T19:34:32.652Z,1020.66
2016-09-19T19:34:58.273Z,1020.64
2016-09-19T19:35:23.834Z,1020.65
2016-09-19T19:35:49.475Z,1020.67
2016-09-19T19:36:15.119Z,1020.65
2016-09-19T19:36:40.695Z,1020.64
2016-09-19T19:37:06.271Z,1020.64
2016-09-19T19:37:31.851Z,1020.62
2016-09-19T19:37:57.570Z,1020.65
2016-09-19T19:38:23.132Z,1020.67
2016-09-19T19:38:49.528Z,1020.65
2016-09-19T19:39:15.101Z,1020.68
2016-09-19T19:39:40.700Z,1020.65
2016-09-19T19:40:06.276Z,1020.65
2016-09-19T19:40:31.902Z,1020.65
2016-09-19T19:40:57.486Z,1020.65
2016-09-19T19:41:23.042Z,1020.7
2016-09-19T19:41:48.608Z,1020.69
2016-09-19T19:42:14.238Z,1020.7
2016-09-19T19:42:39.895Z,1020.67
2016-09-19T19:43:05.517Z,1020.72
2016-09-19T19:43:31.375Z,1020.71
2016-09-19T19:43:56.969Z,1020.68
2016-09-19T19:44:22.581Z,1020.69
2016-09-19T19:44:48.165Z,1020.69
2016-09-19T19:45:13.770Z,1020.71
2016-09-19T19:45:39.335Z,1020.71
2016-09-19T19:46:04.889Z,1020.7
2016-09-19T19:46:30.502Z,1020.71
2016-09-19T19:46:56.150Z,1020.74
2016-09-19T19:47:21.726Z,1020.72
2016-09-19T19:47:47.300Z,1020.75
2016-09-19T19:48:12.944Z,1020.71
2016-09-19T19:48:38.654Z,1020.7
2016-09-19T19:49:04.267Z,1020.73
2016-09-19T19:49:29.865Z,1020.77
2016-09-19T19:49:55.485Z,1020.72
2016-09-19T19:50:21.087Z,1020.72
2016-09-19T19:50:46.660Z,1020.74
2016-09-19T19:51:12.311Z,1020.74
2016-09-19T19:51:37.914Z,1020.73
2016-09-19T19:52:03.497Z,1020.73
2016-09-19T19:52:29.058Z,1020.72
2016-09-19T19:52:54.704Z,1020.74
2016-09-19T19:53:20.383Z,1020.75
2016-09-19T19:53:45.951Z,1020.74
2016-09-19T19:54:11.582Z,1020.73
2016-09-19T19:54:37.189Z,1020.72
2016-09-19T19:55:02.763Z,1020.72
2016-09-19T19:55:28.353Z,1020.73
2016-09-19T19:55:53.946Z,1020.74
2016-09-19T19:56:19.507Z,1020.77
2016-09-19T19:56:45.108Z,1020.78
2016-09-19T19:57:10.721Z,1020.78
2016-09-19T19:57:36.318Z,1020.75
2016-09-19T19:58:01.933Z,1020.77
2016-09-19T19:58:27.566Z,1020.77
2016-09-19T19:58:53.154Z,1020.76
2016-09-19T19:59:18.781Z,1020.79
2016-09-19T19:59:44.525Z,1020.8
2016-09-19T20:00:10.096Z,1020.77
2016-09-19T20:00:35.699Z,1020.74
2016-09-19T20:01:01.278Z,1020.77
2016-09-19T20:01:26.947Z,1020.75
2016-09-19T20:01:52.594Z,1020.74
2016-09-19T20:02:18.260Z,1020.78
2016-09-19T20:02:43.813Z,1020.76
2016-09-19T20:03:09.470Z,1020.75
2016-09-19T20:03:35.067Z,1020.71
2016-09-19T20:04:00.767Z,1020.75
2016-09-19T20:04:26.341Z,1020.73
2016-09-19T20:04:51.913Z,1020.74
2016-09-19T20:05:17.515Z,1020.75
2016-09-19T20:05:43.083Z,1020.71
2016-09-19T20:06:08.676Z,1020.76
2016-09-19T20:06:34.237Z,1020.78
2016-09-19T20:06:59.840Z,1020.76
2016-09-19T20:07:25.435Z,1020.74
2016-09-19T20:07:51.018Z,1020.74
2016-09-19T20:08:16.586Z,1020.72
2016-09-19T20:08:42.262Z,1020.74
2016-09-19T20:09:07.813Z,1020.74
2016-09-19T20:09:33.433Z,1020.78
2016-09-19T20:09:58.969Z,1020.73
2016-09-19T20:10:24.553Z,1020.77
2016-09-19T20:10:50.089Z,1020.72
2016-09-19T20:11:15.658Z,1020.74
2016-09-19T20:11:41.215Z,1020.78
2016-09-19T20:12:06.764Z,1020.77
2016-09-19T20:12:32.477Z,1020.77
2016-09-19T20:12:58.170Z,1020.8
2016-09-19T20:13:23.700Z,1020.78
2016-09-19T20:13:49.353Z,1020.78
2016-09-19T20:14:14.936Z,1020.78
2016-09-19T20:14:40.461Z,1020.75
2016-09-19T20:15:06.034Z,1020.75
2016-09-19T20:15:31.676Z,1020.76
2016-09-19T20:15:57.305Z,1020.74
2016-09-19T20:16:22.873Z,1020.75
2016-09-19T20:16:48.524Z,1020.72
2016-09-19T20:17:14.158Z,1020.76
2016-09-19T20:17:39.745Z,1020.76
2016-09-19T20:18:05.337Z,1020.75
2016-09-19T20:18:30.942Z,1020.73
2016-09-19T20:18:56.521Z,1020.73
2016-09-19T20:19:22.106Z,1020.7
2016-09-19T20:19:47.673Z,1020.71
2016-09-19T20:21:01.091Z,1020.76
2016-09-19T20:21:59.182Z,1020.75
2016-09-19T20:22:24.742Z,1020.77
2016-09-19T20:22:50.318Z,1020.71
2016-09-19T20:23:15.918Z,1020.69
2016-09-19T20:23:41.499Z,1020.75
2016-09-19T20:24:07.049Z,1020.75
2016-09-19T20:24:32.612Z,1020.75
2016-09-19T20:24:58.180Z,1020.72
2016-09-19T20:25:23.755Z,1020.74
2016-09-19T20:25:49.326Z,1020.73
2016-09-19T20:26:14.907Z,1020.74
2016-09-19T20:26:40.499Z,1020.72
2016-09-19T20:27:06.096Z,1020.68
2016-09-19T20:27:31.681Z,1020.7
2016-09-19T20:27:57.254Z,1020.68
2016-09-19T20:28:55.320Z,1020.69
2016-09-19T20:29:20.998Z,1020.67
2016-09-19T20:29:46.815Z,1020.7
2016-09-19T20:30:12.385Z,1020.66
2016-09-19T20:30:37.944Z,1020.65
2016-09-19T20:31:03.526Z,1020.64
2016-09-19T20:31:29.145Z,1020.67
2016-09-19T20:31:54.707Z,1020.69
2016-09-19T20:32:20.303Z,1020.65
2016-09-19T20:32:45.875Z,1020.67
2016-09-19T20:33:11.439Z,1020.69
2016-09-19T20:33:37.024Z,1020.68
2016-09-19T20:34:02.592Z,1020.7
2016-09-19T20:34:28.155Z,1020.7
2016-09-19T20:34:53.783Z,1020.68
2016-09-19T20:35:19.453Z,1020.7
2016-09-19T20:35:45.082Z,1020.72
2016-09-19T20:36:10.678Z,1020.71
2016-09-19T20:36:36.274Z,1020.72
2016-09-19T20:37:02.012Z,1020.68
2016-09-19T20:37:27.596Z,1020.71
2016-09-19T20:37:53.163Z,1020.73
2016-09-19T20:38:18.747Z,1020.72
2016-09-19T20:38:44.361Z,1020.73
2016-09-19T20:39:09.946Z,1020.72
2016-09-19T20:39:35.584Z,1020.7
2016-09-19T20:40:01.160Z,1020.75
2016-09-19T20:40:59.247Z,1020.76
2016-09-19T20:41:24.896Z,1020.76
2016-09-19T20:41:50.486Z,1020.77
2016-09-19T20:42:16.065Z,1020.73
2016-09-19T20:42:41.640Z,1020.72
2016-09-19T20:43:07.222Z,1020.73
2016-09-19T20:43:32.878Z,1020.7
2016-09-19T20:43:58.486Z,1020.72
2016-09-19T20:44:24.084Z,1020.72
2016-09-19T20:44:49.645Z,1020.74
2016-09-19T20:45:15.186Z,1020.73
2016-09-19T20:45:40.745Z,1020.71
2016-09-19T20:46:06.351Z,1020.72
2016-09-19T20:46:32.075Z,1020.73
2016-09-19T20:46:57.650Z,1020.73
2016-09-19T20:47:23.222Z,1020.72
2016-09-19T20:47:48.768Z,1020.73
2016-09-19T20:48:14.336Z,1020.7
2016-09-19T20:48:39.909Z,1020.74
2016-09-19T20:49:05.484Z,1020.72
2016-09-19T20:49:31.046Z,1020.73
2016-09-19T20:49:56.623Z,1020.75
2016-09-19T20:50:22.281Z,1020.74
2016-09-19T20:50:47.842Z,1020.74
2016-09-19T20:51:13.396Z,1020.7
2016-09-19T20:51:39.116Z,1020.72
2016-09-19T20:52:47.381Z,1020.72
2016-09-19T20:53:12.961Z,1020.73
2016-09-19T20:53:38.531Z,1020.7
2016-09-19T20:54:04.099Z,1020.71
2016-09-19T20:54:29.655Z,1020.68
2016-09-19T20:54:55.250Z,1020.72
2016-09-19T20:55:20.913Z,1020.73
2016-09-19T20:55:46.461Z,1020.71
2016-09-19T20:56:12.058Z,1020.66
2016-09-19T20:56:37.739Z,1020.73
2016-09-19T20:57:03.311Z,1020.7
2016-09-19T20:57:28.868Z,1020.66
2016-09-19T20:57:54.538Z,1020.72
2016-09-19T20:58:20.140Z,1020.73
2016-09-19T20:58:45.703Z,1020.75
2016-09-19T20:59:11.277Z,1020.74
2016-09-19T20:59:36.877Z,1020.73
2016-09-19T21:00:02.428Z,1020.67
2016-09-19T21:00:28.012Z,1020.69
2016-09-19T21:00:53.548Z,1020.7
2016-09-19T21:01:56.762Z,1020.74
2016-09-19T21:02:22.346Z,1020.75
2016-09-19T21:02:47.911Z,1020.75
2016-09-19T21:03:13.516Z,1020.71
2016-09-19T21:03:39.080Z,1020.73
2016-09-19T21:04:04.751Z,1020.7
2016-09-19T21:04:30.331Z,1020.71
2016-09-19T21:04:55.901Z,1020.71
2016-09-19T21:05:21.457Z,1020.71
2016-09-19T21:05:47.013Z,1020.71
2016-09-19T21:06:12.611Z,1020.69
2016-09-19T21:06:38.202Z,1020.66
2016-09-19T21:07:03.770Z,1020.7
2016-09-19T21:07:29.316Z,1020.71
2016-09-19T21:07:54.863Z,1020.69
2016-09-19T21:08:20.454Z,1020.69
2016-09-19T21:08:46.012Z,1020.69
2016-09-19T21:09:11.584Z,1020.68
2016-09-19T21:09:37.191Z,1020.71
2016-09-19T21:10:02.794Z,1020.71
2016-09-19T21:10:28.361Z,1020.68
2016-09-19T21:10:54.034Z,1020.7
2016-09-19T21:11:19.626Z,1020.7
2016-09-19T21:11:45.193Z,1020.7
2016-09-19T21:12:10.874Z,1020.7
2016-09-19T21:12:36.546Z,1020.7
2016-09-19T21:13:02.110Z,1020.68
2016-09-19T21:13:27.675Z,1020.73
2016-09-19T21:13:53.272Z,1020.68
2016-09-19T21:14:18.866Z,1020.7
2016-09-19T21:14:44.445Z,1020.7
2016-09-19T21:15:10.063Z,1020.71
2016-09-19T21:15:35.636Z,1020.69
2016-09-19T21:16:01.203Z,1020.68
2016-09-19T21:16:26.912Z,1020.72
2016-09-19T21:16:52.496Z,1020.69
2016-09-19T21:17:18.091Z,1020.68
2016-09-19T21:17:43.700Z,1020.67
2016-09-19T21:18:09.267Z,1020.67
2016-09-19T21:18:34.848Z,1020.69
2016-09-19T21:19:00.511Z,1020.68
2016-09-19T21:19:26.098Z,1020.72
2016-09-19T21:19:51.657Z,1020.66
2016-09-19T21:20:17.253Z,1020.68
2016-09-19T21:20:42.873Z,1020.72
2016-09-19T21:21:08.447Z,1020.71
2016-09-19T21:21:34.023Z,1020.72
2016-09-19T21:21:59.663Z,1020.72
2016-09-19T21:22:25.231Z,1020.71
2016-09-19T21:22:50.810Z,1020.75
2016-09-19T21:23:16.384Z,1020.71
2016-09-19T21:23:41.956Z,1020.7
2016-09-19T21:24:07.504Z,1020.76
2016-09-19T21:25:05.628Z,1020.76
2016-09-19T21:25:31.178Z,1020.73
2016-09-19T21:25:56.752Z,1020.73
2016-09-19T21:26:22.327Z,1020.71
2016-09-19T21:26:47.960Z,1020.73
2016-09-19T21:27:13.548Z,1020.74
2016-09-19T21:27:39.105Z,1020.76
2016-09-19T21:28:04.717Z,1020.76
2016-09-19T21:28:30.323Z,1020.74
2016-09-19T21:28:55.871Z,1020.77
2016-09-19T21:29:21.503Z,1020.74
2016-09-19T21:29:47.099Z,1020.76
2016-09-19T21:30:12.666Z,1020.76
2016-09-19T21:30:38.222Z,1020.75
2016-09-19T21:31:03.923Z,1020.73
2016-09-19T21:31:29.473Z,1020.76
2016-09-19T21:31:55.024Z,1020.78
2016-09-19T21:32:20.598Z,1020.77
2016-09-19T21:32:46.219Z,1020.77
2016-09-19T21:33:11.767Z,1020.79
2016-09-19T21:33:37.339Z,1020.79
2016-09-19T21:34:02.913Z,1020.79
2016-09-19T21:34:28.489Z,1020.79
2016-09-19T21:34:54.047Z,1020.84
2016-09-19T21:35:19.600Z,1020.78
2016-09-19T21:35:45.147Z,1020.82
2016-09-19T21:36:10.734Z,1020.79
2016-09-19T21:36:36.330Z,1020.79
2016-09-19T21:37:01.925Z,1020.82
2016-09-19T21:37:27.491Z,1020.77
2016-09-19T21:37:53.081Z,1020.82
2016-09-19T21:38:18.648Z,1020.8
2016-09-19T21:38:44.267Z,1020.81
2016-09-19T21:39:09.834Z,1020.83
2016-09-19T21:39:35.405Z,1020.82
2016-09-19T21:40:00.968Z,1020.8
2016-09-19T21:40:26.623Z,1020.79
2016-09-19T21:40:52.204Z,1020.79
2016-09-19T21:41:17.881Z,1020.82
2016-09-19T21:41:43.458Z,1020.82
2016-09-19T21:42:09.044Z,1020.8
2016-09-19T21:42:34.618Z,1020.82
2016-09-19T21:43:00.262Z,1020.82
2016-09-19T21:43:25.828Z,1020.84
2016-09-19T21:43:51.379Z,1020.85
2016-09-19T21:44:16.985Z,1020.86
2016-09-19T21:44:42.550Z,1020.8
2016-09-19T21:45:08.117Z,1020.83
2016-09-19T21:45:33.716Z,1020.88
2016-09-19T21:45:59.297Z,1020.83
2016-09-19T21:46:24.876Z,1020.86
2016-09-19T21:46:50.464Z,1020.87
2016-09-19T21:47:16.124Z,1020.86
2016-09-19T21:47:41.692Z,1020.84
2016-09-19T21:48:07.305Z,1020.86
2016-09-19T21:48:32.870Z,1020.86
2016-09-19T21:48:58.442Z,1020.83
2016-09-19T21:49:24.012Z,1020.88
2016-09-19T21:49:49.711Z,1020.87
2016-09-19T21:50:15.292Z,1020.87
2016-09-19T21:50:40.875Z,1020.86
2016-09-19T21:51:06.495Z,1020.85
2016-09-19T21:51:32.071Z,1020.84
2016-09-19T21:51:57.616Z,1020.87
2016-09-19T21:52:23.178Z,1020.85
2016-09-19T21:52:48.740Z,1020.88
2016-09-19T21:53:14.289Z,1020.86
2016-09-19T21:53:39.872Z,1020.88
2016-09-19T21:54:05.456Z,1020.88
2016-09-19T21:54:31.026Z,1020.88
2016-09-19T21:54:56.588Z,1020.87
2016-09-19T21:55:22.141Z,1020.89
2016-09-19T21:55:47.763Z,1020.9
2016-09-19T21:56:13.355Z,1020.9
2016-09-19T21:56:38.899Z,1020.88
2016-09-19T21:57:04.473Z,1020.91
2016-09-19T21:57:30.031Z,1020.92
2016-09-19T21:57:55.584Z,1020.94
2016-09-19T21:58:21.329Z,1020.95
2016-09-19T21:58:46.881Z,1020.91
2016-09-19T21:59:12.494Z,1020.92
2016-09-19T21:59:38.068Z,1020.96
2016-09-19T22:00:03.631Z,1020.93
2016-09-19T22:00:29.196Z,1020.95
2016-09-19T22:00:54.816Z,1020.95
2016-09-19T22:01:20.370Z,1020.93
2016-09-19T22:01:45.920Z,1020.95
2016-09-19T22:02:11.711Z,1020.96
2016-09-19T22:02:37.199Z,1020.92
2016-09-19T22:03:02.779Z,1020.93
2016-09-19T22:03:28.335Z,1020.94
2016-09-19T22:03:53.901Z,1020.96
2016-09-19T22:04:19.463Z,1020.95
2016-09-19T22:04:45.028Z,1020.92
2016-09-19T22:05:10.677Z,1020.95
2016-09-19T22:05:36.238Z,1020.92
2016-09-19T22:06:01.794Z,1020.95
2016-09-19T22:06:27.343Z,1020.97
2016-09-19T22:06:52.901Z,1020.95
2016-09-19T22:07:18.460Z,1020.95
2016-09-19T22:07:44.192Z,1020.96
2016-09-19T22:08:09.750Z,1020.97
2016-09-19T22:08:35.332Z,1020.97
2016-09-19T22:09:00.934Z,1020.96
2016-09-19T22:09:26.500Z,1020.97
2016-09-19T22:09:52.068Z,1020.94
2016-09-19T22:10:17.644Z,1020.94
2016-09-19T22:10:43.331Z,1020.94
2016-09-19T22:11:08.892Z,1020.97
2016-09-19T22:11:34.451Z,1020.95
2016-09-19T22:12:00.014Z,1020.95
2016-09-19T22:12:25.628Z,1020.96
2016-09-19T22:12:51.198Z,1020.96
2016-09-19T22:13:16.813Z,1020.91
2016-09-19T22:13:42.390Z,1020.96
2016-09-19T22:14:08.026Z,1020.96
2016-09-19T22:14:33.609Z,1020.98
2016-09-19T22:14:59.185Z,1020.98
2016-09-19T22:15:24.753Z,1020.97